This is the latest recevied weather packets stored in our database for station/object K7LDN-13. If no packets are shown the sender has not sent any weather packets the latest 10 day(s).
| Time | Temp. | Humidity | Pressure | Rain* | Wind** | Luminosity | Snow |
|---|---|---|---|---|---|---|---|
| 1777413911 | 11.67° C | 49% | 1023.4 hPa | 0 mm | - | 522 W/m² | - |
| 1777411485 | 12.78° C | 44% | 1023.2 hPa | 0 mm | - | 362 W/m² | - |
| 1777410879 | 12.78° C | 39% | 1023.2 hPa | 0 mm | - | 428 W/m² | - |
| 1777408143 | 11.67° C | 43% | 1023.5 hPa | 0 mm | - | 389 W/m² | - |
| 1777407536 | 12.78° C | 45% | 1023.3 hPa | 0 mm | - | 373 W/m² | - |
| 1777407235 | 12.78° C | 44% | 1023.4 hPa | 0 mm | - | 650 W/m² | - |
| 1777406930 | 11.67° C | 48% | 1023.5 hPa | 0 mm | - | 929 W/m² | - |
| 1777404804 | 10.56° C | 50% | 1023.5 hPa | 0 mm | - | 316 W/m² | - |
| 1777404501 | 10.56° C | 49% | 1023.5 hPa | 0 mm | - | 279 W/m² | - |
| 1777402683 | 11.11° C | 51% | 1023.5 hPa | 0 mm | - | 788 W/m² | - |
| 1777401776 | 11.11° C | 51% | 1023.7 hPa | 0 mm | - | 308 W/m² | - |
| 1777400863 | 11.11° C | 55% | 1023.5 hPa | 0 mm | - | 964 W/m² | - |
| 1777400257 | 9.44° C | 60% | 1023.8 hPa | 0 mm | - | 924 W/m² | - |
| 1777398438 | 10.56° C | 52% | 1023.6 hPa | 0 mm | - | 275 W/m² | - |
| 1777397831 | 10.56° C | 54% | 1023.4 hPa | 0 mm | - | 408 W/m² | - |
| 1777394193 | 9.44° C | 68% | 1023.4 hPa | 0 mm | - | 602 W/m² | - |
| 1777393889 | 8.89° C | 68% | 1023.4 hPa | 0 mm | - | 593 W/m² | - |
| 1777393588 | 8.89° C | 70% | 1023.4 hPa | 0 mm | - | 587 W/m² | - |
| 1777393284 | 8.89° C | 71% | 1023.3 hPa | 0 mm | - | 580 W/m² | - |
| 1777392981 | 8.89° C | 73% | 1023.3 hPa | 0 mm | - | 575 W/m² | - |
| 1777392676 | 8.89° C | 73% | 1023.3 hPa | 0 mm | - | 565 W/m² | - |
| 1777392373 | 8.89° C | 71% | 1023.2 hPa | 0 mm | - | 555 W/m² | - |
| 1777391156 | 7.78° C | 75% | 1023.3 hPa | 0 mm | - | 501 W/m² | - |
| 1777390549 | 7.78° C | 75% | 1023.2 hPa | 0 mm | - | 469 W/m² | - |
| 1777390245 | 7.78° C | 76% | 1022.9 hPa | 0 mm | - | 454 W/m² | - |
* Rain latest hour (hover to see other rain measurements)
** Current wind speed in m/s (hover to see current wind gust speed)